createdAt,value
2023-04-12T03:27:00.903Z,0.1
2023-04-12T03:29:00.286Z,0.2
2023-04-12T03:30:01.139Z,0.3
2023-04-12T03:32:00.717Z,0.4
2023-04-12T03:33:00.359Z,0.5
2023-04-12T03:35:00.270Z,0.7
2023-04-12T03:36:00.544Z,0.8
2023-04-12T03:37:00.740Z,0.9
2023-04-12T03:38:00.260Z,1.1
2023-04-12T03:39:00.265Z,1.2
2023-04-12T03:40:00.589Z,1.5
2023-04-12T03:41:00.267Z,1.7
2023-04-12T03:42:05.502Z,2.0
2023-04-12T03:43:01.959Z,2.3
2023-04-12T03:44:00.262Z,2.5
2023-04-12T03:47:00.472Z,4.0
2023-04-12T03:48:00.300Z,4.7
2023-04-12T03:49:00.522Z,5.3
2023-04-12T03:50:13.131Z,6.2
2023-04-12T03:51:00.264Z,7.1
2023-04-12T03:52:00.725Z,8.4
2023-04-12T03:53:00.281Z,9.7
2023-04-12T03:54:00.265Z,11.1
2023-04-12T03:55:00.321Z,12.9
2023-04-12T03:56:00.294Z,14.8
2023-04-12T03:57:02.345Z,17.6
2023-04-12T03:58:00.300Z,20.4
2023-04-12T03:59:00.265Z,23.2
2023-04-12T04:00:01.971Z,27.4
2023-04-12T04:01:00.515Z,31.6
2023-04-12T04:02:00.527Z,37.8
2023-04-12T04:03:00.290Z,44.0
2023-04-12T04:04:00.599Z,50.2
2023-04-12T04:05:01.126Z,59.5
2023-04-12T04:06:00.278Z,68.9
2023-04-12T04:07:00.489Z,83.0
2023-04-12T04:08:00.526Z,97.1
2023-04-12T04:09:00.275Z,111.3
2023-04-12T04:10:00.326Z,132.3
2023-04-12T04:11:00.278Z,153.3
2023-04-12T04:12:00.490Z,184.4
2023-04-12T04:13:00.309Z,215.5
2023-04-12T04:14:00.540Z,246.7
2023-04-12T04:15:01.207Z,291.9
2023-04-12T04:16:00.344Z,337.2
2023-04-12T04:17:00.476Z,395.9
2023-04-12T04:18:00.572Z,454.7
2023-04-12T04:19:00.276Z,513.4
2023-04-12T04:20:00.334Z,601.1
2023-04-12T04:21:00.285Z,688.7
2023-04-12T04:22:00.512Z,806.1
2023-04-12T04:23:00.526Z,923.5
2023-04-12T04:24:00.275Z,1040.9
2023-04-12T04:25:00.318Z,1180.7
2023-04-12T04:26:00.279Z,1320.4
2023-04-12T04:27:00.481Z,1489.6
2023-04-12T04:28:00.287Z,1658.8
2023-04-12T04:29:00.280Z,1828.0
2023-04-12T04:31:05.294Z,2206.1
2023-04-12T04:32:00.812Z,2409.1
2023-04-12T04:33:00.326Z,2612.1
2023-04-12T04:34:00.286Z,2815.1
2023-04-12T04:35:00.320Z,3032.9
2023-04-12T04:36:00.322Z,3250.6
2023-04-12T04:37:00.516Z,3484.5
2023-04-12T04:38:01.321Z,3718.5
2023-04-12T04:39:00.290Z,3952.4
2023-04-12T04:40:01.188Z,4196.2
2023-04-12T04:42:00.508Z,4678.5
2023-04-12T04:43:00.281Z,4916.9
2023-04-12T04:44:00.283Z,5155.4
2023-04-12T04:45:00.976Z,5400.6
2023-04-12T04:47:00.766Z,5925.6
2023-04-12T04:48:00.292Z,6205.4
2023-04-12T04:49:00.287Z,6485.2
2023-04-12T04:50:00.900Z,6803.7
2023-04-12T04:52:01.338Z,7493.6
2023-04-12T04:53:00.298Z,7864.9
2023-04-12T04:54:00.364Z,8236.3
2023-04-12T04:55:00.337Z,8656.9
2023-04-12T04:56:00.560Z,9077.5
2023-04-12T04:57:02.117Z,9493.9
2023-04-12T04:58:00.296Z,9910.4
2023-04-12T04:59:00.445Z,10326.9
2023-04-12T05:00:01.150Z,10706.0
2023-04-12T05:01:00.460Z,11085.1
2023-04-12T05:02:01.266Z,11406.4
2023-04-12T05:03:00.320Z,11727.7
2023-04-12T05:04:00.353Z,12048.9
2023-04-12T05:05:06.132Z,12339.8
2023-04-12T05:06:00.288Z,12630.7
2023-04-12T05:07:00.494Z,12931.4
2023-04-12T05:08:00.301Z,13232.1
2023-04-12T05:09:00.328Z,13532.9
2023-04-12T05:10:00.340Z,13890.7
2023-04-12T05:11:00.288Z,14248.5
2023-04-12T05:12:00.489Z,14749.9
2023-04-12T05:13:00.290Z,15251.4
2023-04-12T05:14:00.295Z,15752.9
2023-04-12T05:15:11.385Z,16373.1
2023-04-12T05:16:00.289Z,16993.4
2023-04-12T05:17:00.801Z,17699.8
2023-04-12T05:18:00.342Z,18406.2
2023-04-12T05:19:00.285Z,19112.6
2023-04-12T05:20:01.210Z,19780.3
2023-04-12T05:22:00.528Z,20943.0
2023-04-12T05:23:00.535Z,21437.9
2023-04-12T05:24:00.297Z,21932.9
2023-04-12T05:25:00.367Z,22235.3
2023-04-12T05:26:00.310Z,22537.7
2023-04-12T05:27:00.512Z,22696.1
2023-04-12T05:28:00.300Z,22854.6
2023-04-12T05:29:00.294Z,23013.1
2023-04-12T05:30:01.229Z,22846.1
2023-04-12T05:31:01.376Z,22679.2
2023-04-12T05:32:01.466Z,22321.6
2023-04-12T05:33:00.371Z,21964.0
2023-04-12T05:34:00.329Z,21606.4
2023-04-12T05:35:00.346Z,21232.5
2023-04-12T05:36:00.587Z,20858.5
2023-04-12T05:37:00.561Z,20576.9
2023-04-12T05:38:00.299Z,20295.3
2023-04-12T05:39:00.300Z,20013.7
2023-04-12T05:40:00.346Z,19869.1
2023-04-12T05:41:00.318Z,19724.4
2023-04-12T05:42:01.417Z,19559.0
2023-04-12T05:43:00.300Z,19393.6
2023-04-12T05:44:00.304Z,19228.2
2023-04-12T05:45:00.992Z,19346.4
2023-04-12T05:46:01.345Z,19464.6
2023-04-12T05:47:00.515Z,19816.9
2023-04-12T05:48:01.404Z,20169.3
2023-04-12T05:49:00.309Z,20521.6
2023-04-12T05:50:00.411Z,20965.7
2023-04-12T05:51:00.304Z,21409.7
2023-04-12T05:52:00.770Z,22088.9
2023-04-12T05:53:00.308Z,22768.1
2023-04-12T05:54:00.308Z,23447.3
2023-04-12T05:55:00.342Z,24302.0
2023-04-12T05:56:00.302Z,25156.7
2023-04-12T05:57:00.520Z,25916.9
2023-04-12T05:58:00.304Z,26677.1
2023-04-12T05:59:00.335Z,27437.3
2023-04-12T06:00:01.226Z,28205.3
2023-04-12T06:02:00.544Z,29645.2
2023-04-12T06:03:00.382Z,30317.1
2023-04-12T06:04:00.465Z,30989.1
2023-04-12T06:05:00.626Z,31794.0
2023-04-12T06:06:00.355Z,32598.9
2023-04-12T06:07:06.551Z,33213.4
2023-04-12T06:08:01.344Z,33827.9
2023-04-12T06:09:00.314Z,34442.3
2023-04-12T06:10:00.367Z,35000.5
2023-04-12T06:11:05.314Z,35558.6
2023-04-12T06:12:00.515Z,36687.1
2023-04-12T06:13:00.335Z,37815.7
2023-04-12T06:14:00.315Z,38944.2
2023-04-12T06:15:00.983Z,40338.6
2023-04-12T06:16:00.380Z,41733.0
2023-04-12T06:17:00.538Z,43133.8
2023-04-12T06:18:00.355Z,44534.6
2023-04-12T06:19:00.549Z,45935.4
2023-04-12T06:20:01.414Z,47632.9
2023-04-12T06:22:15.463Z,51153.3
2023-04-12T06:23:00.854Z,52976.3
2023-04-12T06:24:00.389Z,54799.3
2023-04-12T06:25:05.899Z,56412.7
2023-04-12T06:26:00.380Z,58026.1
2023-04-12T06:27:00.390Z,58680.9
2023-04-12T06:28:00.735Z,59335.7
2023-04-12T06:29:00.399Z,59990.5
2023-04-12T06:30:01.575Z,60762.3
2023-04-12T06:32:00.407Z,62259.4
2023-04-12T06:33:02.408Z,62984.8
2023-04-12T06:34:00.379Z,63710.2
2023-04-12T06:35:01.557Z,63913.8
2023-04-12T06:42:00.443Z,64589.9
2023-04-12T06:43:00.374Z,65062.5
2023-04-12T06:44:00.385Z,65535.0
2023-04-12T06:45:02.033Z,65535.0
2023-04-12T08:45:19.821Z,65535.0
2023-04-12T10:00:01.948Z,65535.0
2023-04-12T10:15:01.363Z,65535.0
2023-04-12T10:30:01.493Z,65535.0
2023-04-12T11:00:05.662Z,65535.0
2023-04-12T11:17:00.386Z,64745.6
2023-04-12T11:32:00.440Z,65535.0
2023-04-12T11:35:01.673Z,65064.8
2023-04-12T11:36:00.341Z,64594.6
2023-04-12T11:37:00.339Z,64124.4
2023-04-12T11:38:00.393Z,63397.1
2023-04-12T11:39:00.344Z,62669.9
2023-04-12T11:40:00.618Z,62294.1
2023-04-12T11:41:00.355Z,61918.4
2023-04-12T11:42:00.340Z,61542.7
2023-04-12T11:50:01.191Z,62012.9
2023-04-12T11:52:00.345Z,62953.3
2023-04-12T11:53:00.346Z,62848.9
2023-04-12T11:54:00.565Z,62744.6
2023-04-12T11:57:00.371Z,62039.2
2023-04-12T11:58:00.349Z,61618.3
2023-04-12T11:59:00.430Z,61197.5
2023-04-12T12:02:00.452Z,58174.7
2023-04-12T12:03:07.506Z,56606.5
2023-04-12T12:04:00.978Z,55038.3
2023-04-12T12:07:00.614Z,50463.7
2023-04-12T12:08:01.314Z,50083.3
2023-04-12T12:09:00.393Z,49703.0
2023-04-12T12:10:01.750Z,49330.2
2023-04-12T12:12:00.360Z,48584.6
2023-04-12T12:13:00.347Z,48149.5
2023-04-12T12:14:00.599Z,47714.5
2023-04-12T12:15:01.538Z,47806.7
2023-04-12T12:17:00.349Z,47991.3
2023-04-12T12:18:00.399Z,48909.7
2023-04-12T12:19:00.420Z,49828.1
2023-04-12T12:22:00.353Z,52436.1
2023-04-12T12:23:00.355Z,52587.5
2023-04-12T12:24:00.601Z,52738.9
2023-04-12T12:25:01.278Z,52508.2
2023-04-12T12:26:10.411Z,52277.5
2023-04-12T12:27:00.353Z,52046.9
2023-04-12T12:28:00.354Z,51747.8
2023-04-12T12:29:00.713Z,51448.7
2023-04-12T12:32:00.387Z,52118.9
2023-04-12T12:33:00.421Z,52761.1
2023-04-12T12:34:00.646Z,53403.2
2023-04-12T12:35:01.141Z,53967.3
2023-04-12T12:37:00.500Z,55095.6
2023-04-12T12:38:00.363Z,56156.1
2023-04-12T12:39:00.361Z,57216.7
2023-04-12T12:40:01.245Z,58431.0
2023-04-12T12:42:00.369Z,60859.7
2023-04-12T12:43:00.387Z,62014.7
2023-04-12T12:44:00.401Z,63169.7
2023-04-12T12:45:01.299Z,63861.6
2023-04-12T12:47:06.546Z,65245.5
2023-04-12T12:48:00.434Z,65253.1
2023-04-12T12:49:00.376Z,65260.8
2023-04-12T12:52:00.388Z,65535.0
2023-04-12T13:00:03.304Z,65535.0
2023-04-12T13:03:00.648Z,65395.5
2023-04-12T13:04:00.517Z,65255.9
2023-04-12T13:05:01.972Z,64985.8
2023-04-12T13:07:00.361Z,64445.5
2023-04-12T13:08:00.371Z,64286.5
2023-04-12T13:09:00.702Z,64127.5
2023-04-12T13:10:01.841Z,64111.1
2023-04-12T13:12:00.369Z,64078.3
2023-04-12T13:13:00.371Z,63884.5
2023-04-12T13:14:00.373Z,63690.7
2023-04-12T13:15:25.602Z,63396.5
2023-04-12T13:17:00.371Z,62807.9
2023-04-12T13:18:00.405Z,62393.6
2023-04-12T13:45:01.953Z,34970.0
2023-04-12T13:48:00.483Z,36704.3
2023-04-12T13:49:00.666Z,37744.8
2023-04-12T13:50:00.762Z,38655.5
2023-04-12T13:51:00.359Z,39306.0
2023-04-12T13:52:01.386Z,39793.9
2023-04-12T13:53:00.441Z,40331.9
2023-04-12T13:54:00.413Z,40762.3
2023-04-12T13:55:00.870Z,40694.5
2023-04-12T13:56:00.426Z,40638.1
2023-04-12T13:57:00.378Z,40590.3
2023-04-12T13:58:00.456Z,40565.0
2023-04-12T13:59:00.353Z,40543.1
2023-04-12T14:00:04.286Z,41058.0
2023-04-12T14:02:00.393Z,42087.9
2023-04-12T14:03:00.466Z,41997.7
2023-04-12T14:04:00.361Z,41907.6
2023-04-12T14:05:00.791Z,41669.1
2023-04-12T14:06:00.423Z,41430.7
2023-04-12T14:07:00.753Z,41192.2
2023-04-12T14:08:00.437Z,41167.7
2023-04-12T14:09:00.421Z,41143.3
2023-04-12T14:10:15.385Z,41547.9
2023-04-12T14:11:00.797Z,41952.5
2023-04-12T14:12:00.515Z,42357.1
2023-04-12T14:13:00.366Z,43443.2
2023-04-12T14:38:00.831Z,39335.8
2023-04-12T14:39:00.851Z,39439.4
2023-04-12T14:42:00.835Z,39766.6
2023-04-12T14:43:01.128Z,39905.0
2023-04-12T14:44:00.901Z,40015.7
2023-04-12T14:45:02.066Z,40074.7
2023-04-12T14:47:00.897Z,40165.5
2023-04-12T14:48:00.964Z,40069.9
2023-04-12T14:49:00.901Z,39986.9
2023-04-12T14:50:02.145Z,39970.1
2023-04-12T14:51:00.865Z,39953.3
2023-04-12T14:52:00.919Z,39936.5
2023-04-12T14:53:00.833Z,39987.3
2023-04-12T14:54:00.996Z,40038.1
2023-04-12T14:55:01.574Z,39996.6
2023-04-12T14:56:00.861Z,39955.1
2023-04-12T14:57:00.844Z,39913.5
2023-04-12T14:58:00.833Z,39915.5
2023-04-12T14:59:00.942Z,39917.5
2023-04-12T15:02:00.907Z,41232.3
2023-04-12T15:03:01.098Z,41912.7
2023-04-12T15:04:01.242Z,42593.0
2023-04-12T15:05:01.364Z,43566.5
2023-04-12T15:06:00.840Z,44539.9
2023-04-12T15:07:00.860Z,45513.4
2023-04-12T15:08:00.841Z,46507.7
2023-04-12T15:09:00.880Z,47502.1
2023-04-12T15:12:01.028Z,50785.9
2023-04-12T15:13:00.837Z,51881.1
2023-04-12T15:14:00.831Z,52976.3
2023-04-12T15:17:00.840Z,54233.3
2023-04-12T15:18:00.914Z,54234.5
2023-04-12T15:48:00.600Z,45321.8
2023-04-12T15:49:00.525Z,45580.2
2023-04-12T15:50:00.936Z,46793.0
2023-04-12T15:51:00.608Z,47659.3
2023-04-12T15:52:00.584Z,48309.0
2023-04-12T15:53:00.588Z,48882.0
2023-04-12T15:54:00.665Z,49340.4
2023-04-12T15:55:00.938Z,49576.3
2023-04-12T15:56:00.593Z,49772.8
2023-04-12T15:57:00.584Z,49939.2
2023-04-12T15:58:00.836Z,50229.6
2023-04-12T15:59:00.726Z,50481.4
2023-04-12T16:02:00.699Z,52306.0
2023-04-12T16:03:00.594Z,52724.5
2023-04-12T16:04:00.764Z,53142.9
2023-04-12T16:05:01.970Z,52222.6
2023-04-12T16:06:00.524Z,51302.3
2023-04-12T16:07:00.584Z,50381.9
2023-04-12T16:08:00.889Z,50023.4
2023-04-12T16:09:00.842Z,49664.9
2023-04-12T16:12:00.540Z,48021.5
2023-04-12T16:13:00.804Z,47474.5
2023-04-12T16:14:00.544Z,46927.6
2023-04-12T16:15:01.598Z,46005.2
2023-04-12T16:17:00.565Z,44160.4
2023-04-12T16:18:00.553Z,43527.5
2023-04-12T16:19:00.820Z,42894.7
2023-04-12T16:20:00.816Z,43981.5
2023-04-12T16:21:00.520Z,45068.4
2023-04-12T16:22:00.523Z,46155.3
2023-04-12T16:23:00.536Z,47144.2
2023-04-12T16:24:00.602Z,48133.1
2023-04-12T16:25:00.764Z,49305.1
2023-04-12T16:26:00.537Z,50477.0
2023-04-12T16:27:00.566Z,51648.9
2023-04-12T16:28:00.527Z,52544.5
2023-04-12T16:29:00.697Z,53440.0
2023-04-12T16:32:00.627Z,54460.6
2023-04-12T16:33:00.618Z,54097.3
2023-04-12T16:34:01.572Z,53733.9
2023-04-12T16:35:00.744Z,52953.9
2023-04-12T16:36:00.699Z,52173.8
2023-04-12T16:37:01.631Z,51393.7
2023-04-12T16:38:00.592Z,50187.4
2023-04-12T16:39:00.591Z,48981.1
2023-04-12T16:40:03.435Z,47756.7
2023-04-12T16:41:00.675Z,46532.3
2023-04-12T16:42:00.597Z,45307.9
2023-04-12T16:43:00.533Z,43817.7
2023-04-12T16:44:00.530Z,42327.5
2023-04-12T16:45:01.633Z,40859.4
2023-04-12T16:47:00.561Z,37923.3
2023-04-12T16:48:00.831Z,36501.5
2023-04-12T16:49:00.604Z,35079.7
2023-04-12T16:50:00.898Z,33228.6
2023-04-12T16:51:00.558Z,31377.5
2023-04-12T16:52:00.538Z,29526.5
2023-04-12T16:53:00.549Z,27476.9
2023-04-12T16:54:00.543Z,25427.4
2023-04-12T16:57:00.540Z,19318.2
2023-04-12T16:58:00.537Z,17304.6
2023-04-12T16:59:00.540Z,15291.0
2023-04-12T17:02:00.583Z,12175.4
2023-04-12T17:03:00.592Z,11705.4
2023-04-12T17:04:00.747Z,11235.4
2023-04-12T17:05:01.387Z,10624.6
2023-04-12T17:07:00.596Z,9403.0
2023-04-12T17:08:00.535Z,9087.9
2023-04-12T17:09:00.667Z,8772.9
2023-04-12T17:11:00.771Z,8126.6
2023-04-12T17:12:00.526Z,7803.5
2023-04-12T17:13:00.535Z,7876.0
2023-04-12T17:14:00.679Z,7948.5
2023-04-12T17:16:00.858Z,8131.1
2023-04-12T17:17:00.529Z,8222.3
2023-04-12T17:18:00.552Z,8219.0
2023-04-12T17:19:00.530Z,8215.7
2023-04-12T17:22:00.576Z,8596.5
2023-04-12T17:23:00.533Z,8533.5
2023-04-12T17:24:00.653Z,8470.6
2023-04-12T17:25:15.917Z,8485.1
2023-04-12T17:26:00.686Z,8499.7
2023-04-12T17:27:00.537Z,8514.2
2023-04-12T17:28:00.532Z,8517.1
2023-04-12T17:29:00.533Z,8519.9
2023-04-12T17:31:00.764Z,8007.5
2023-04-12T17:32:00.545Z,7751.3
2023-04-12T17:33:00.602Z,7444.3
2023-04-12T17:34:00.545Z,7137.3
2023-04-12T17:35:00.547Z,6895.8
2023-04-12T17:36:00.806Z,6654.3
2023-04-12T17:37:00.533Z,6412.7
2023-04-12T17:38:00.539Z,6163.9
2023-04-12T17:39:00.762Z,5915.0
2023-04-12T17:40:00.550Z,5706.0
2023-04-12T17:41:03.561Z,5497.0
2023-04-12T17:42:00.536Z,5288.0
2023-04-12T17:43:00.539Z,5076.7
2023-04-12T17:44:00.553Z,4865.5
2023-04-12T17:46:01.730Z,4584.5
2023-04-12T17:47:00.542Z,4444.1
2023-04-12T17:48:00.629Z,4275.7
2023-04-12T17:49:00.624Z,4107.4
2023-04-12T17:50:01.515Z,3911.8
2023-04-12T17:51:02.242Z,3716.2
2023-04-12T17:52:00.564Z,3520.6
2023-04-12T17:53:00.823Z,3345.1
2023-04-12T17:54:00.913Z,3169.7
2023-04-12T17:55:00.552Z,2997.1
2023-04-12T17:56:00.743Z,2824.5
2023-04-12T17:57:00.587Z,2651.9
2023-04-12T17:58:00.542Z,2472.0
2023-04-12T17:59:00.539Z,2292.1
2023-04-12T18:00:01.176Z,2197.3
2023-04-12T18:01:00.828Z,2102.5
2023-04-12T18:02:00.601Z,2007.7
2023-04-12T18:03:00.698Z,1985.1
2023-04-12T18:04:00.669Z,1962.5
2023-04-12T18:06:00.751Z,1961.7
2023-04-12T18:07:00.601Z,1961.3
2023-04-12T18:08:00.581Z,1932.7
2023-04-12T18:09:00.550Z,1904.0
2023-04-12T18:10:00.567Z,1860.0
2023-04-12T18:11:02.312Z,1816.0
2023-04-12T18:12:00.954Z,1772.0
2023-04-12T18:13:00.546Z,1700.2
2023-04-12T18:14:00.548Z,1628.4
2023-04-12T18:16:00.837Z,1500.9
2023-04-12T18:17:00.591Z,1437.2
2023-04-12T18:18:00.632Z,1343.9
2023-04-12T18:19:00.628Z,1250.7
2023-04-12T18:21:01.811Z,1058.8
2023-04-12T18:22:00.602Z,962.9
2023-04-12T18:23:00.554Z,880.3
2023-04-12T18:24:00.632Z,797.7
2023-04-12T18:25:00.566Z,722.8
2023-04-12T18:26:01.082Z,647.9
2023-04-12T18:27:00.601Z,573.1
2023-04-12T18:28:00.565Z,524.3
2023-04-12T18:29:00.554Z,475.5
2023-04-12T18:30:01.214Z,435.2
2023-04-12T18:31:00.772Z,394.9
2023-04-12T18:32:00.633Z,354.7
2023-04-12T18:33:02.156Z,317.5
2023-04-12T18:34:00.573Z,280.4
2023-04-12T18:35:00.571Z,244.1
2023-04-12T18:36:01.022Z,207.7
2023-04-12T18:37:00.829Z,171.4
2023-04-12T18:38:00.572Z,149.2
2023-04-12T18:39:00.552Z,127.0
2023-04-12T18:40:00.620Z,112.9
2023-04-12T18:41:00.774Z,98.7
2023-04-12T18:42:00.584Z,84.6
2023-04-12T18:43:00.559Z,77.3
2023-04-12T18:44:00.703Z,70.1
2023-04-12T18:45:01.193Z,63.3
2023-04-12T18:46:00.841Z,56.6
2023-04-12T18:47:00.623Z,49.9
2023-04-12T18:48:00.694Z,44.6
2023-04-12T18:49:00.562Z,39.3
2023-04-12T18:50:00.570Z,34.5
2023-04-12T18:51:07.458Z,29.6
2023-04-12T18:52:00.628Z,24.7
2023-04-12T18:53:00.575Z,22.0
2023-04-12T18:54:00.901Z,19.3
2023-04-12T18:55:00.589Z,17.1
2023-04-12T18:56:00.788Z,15.0
2023-04-12T18:57:00.630Z,12.9
2023-04-12T18:58:00.568Z,11.5
2023-04-12T18:59:00.561Z,10.1
2023-04-12T19:01:02.158Z,7.9
2023-04-12T19:02:00.907Z,6.9
2023-04-12T19:03:00.614Z,5.9
2023-04-12T19:04:00.700Z,4.9
2023-04-12T19:05:00.592Z,4.3
2023-04-12T19:06:02.251Z,3.7
2023-04-12T19:07:00.612Z,3.1
2023-04-12T19:08:01.595Z,2.7
2023-04-12T19:09:00.840Z,2.4
2023-04-12T19:10:00.571Z,2.1
2023-04-12T19:11:00.793Z,1.9
2023-04-12T19:12:00.838Z,1.6
2023-04-12T19:13:00.843Z,1.4
2023-04-12T19:14:00.833Z,1.2
2023-04-12T19:16:00.816Z,0.9
2023-04-12T19:17:00.589Z,0.8
2023-04-12T19:18:01.288Z,0.7
2023-04-12T19:19:00.563Z,0.5
2023-04-12T19:21:02.355Z,0.4
2023-04-12T19:22:00.595Z,0.3
2023-04-12T19:24:00.784Z,0.2
2023-04-12T19:25:00.583Z,0.1
